Time;durP1;ratioP1;P1;durP2;ratioP2;P2;SDS_P1;SDS_P2;PMS_P1;PMS_P2;Temp;Humidity;BMP_temperature;BMP_pressure;BME280_temperature;BME280_humidity;BME280_pressure;Samples;Min_cycle;Max_cycle;Signal;HPM_P1;HPM_P2
2021/01/12 00:00:22;;;;;;;;;;;;;;;0.24;86.86;100358.28;1647019;86;20258;-76
2021/01/12 00:02:51;;;;;;;;;;;;;;;0.24;86.87;100357.02;1657500;86;20562;-76
2021/01/12 00:05:17;;;;;;;;;;;;;;;0.25;86.88;100347.28;1662284;86;20229;-76
2021/01/12 00:07:43;;;;;;;;;;;;;;;0.24;86.87;100351.52;1653172;86;20293;-76
2021/01/12 00:10:10;;;;;;;;;;;;;;;0.25;86.85;100352.37;1660319;85;21221;-76
2021/01/12 00:12:35;;;;;;;;;;;;;;;0.26;86.87;100346.46;1656868;86;20599;-76
2021/01/12 00:15:03;;;;;;;;;;;;;;;0.26;86.87;100338.42;1661425;86;20177;-76
2021/01/12 00:17:29;;;;;;;;;;;;;;;0.27;86.88;100327.84;1661382;85;20245;-76
2021/01/12 00:19:55;;;;;;;;;;;;;;;0.28;86.91;100329.55;1648117;86;20235;-76
2021/01/12 00:22:21;;;;;;;;;;;;;;;0.28;86.85;100321.52;1646062;86;21262;-76
2021/01/12 00:24:49;;;;;;;;;;;;;;;0.29;86.84;100318.55;1661080;86;20319;-76
2021/01/12 00:27:16;;;;;;;;;;;;;;;0.30;86.85;100319.00;1658328;86;20918;-76
2021/01/12 00:29:43;;;;;;;;;;;;;;;0.31;86.85;100315.63;1649855;86;20291;-76
2021/01/12 00:32:18;;;;;;;;;;;;;;;0.30;86.85;100309.69;1661279;85;20296;-76
2021/01/12 00:34:44;;;;;;;;;;;;;;;0.31;86.86;100303.77;1650280;85;21257;-76
2021/01/12 00:37:10;;;;;;;;;;;;;;;0.31;86.85;100306.31;1659367;86;20281;-76
2021/01/12 00:39:36;;;;;;;;;;;;;;;0.32;86.85;100303.36;1645169;86;20283;-76
2021/01/12 00:42:02;;;;;;;;;;;;;;;0.33;86.84;100299.58;1649717;86;20309;-76
2021/01/12 00:44:28;;;;;;;;;;;;;;;0.35;86.84;100282.22;1657748;86;20290;-76
2021/01/12 00:46:55;;;;;;;;;;;;;;;0.33;86.83;100276.69;1652139;86;21288;-76
2021/01/12 00:49:23;;;;;;;;;;;;;;;0.35;86.81;100282.22;1660662;86;20281;-76
2021/01/12 00:51:49;;;;;;;;;;;;;;;0.36;86.81;100269.95;1652400;86;20633;-76
2021/01/12 00:54:17;;;;;;;;;;;;;;;0.36;86.81;100265.72;1649109;86;20581;-76
2021/01/12 00:56:43;;;;;;;;;;;;;;;0.36;86.79;100256.82;1614333;85;20262;-76
2021/01/12 00:59:10;;;;;;;;;;;;;;;0.36;86.78;100253.42;1637237;87;21808;-76
2021/01/12 01:01:39;;;;;;;;;;;;;;;0.36;86.80;100261.91;1639270;87;20254;-76
2021/01/12 01:04:09;;;;;;;;;;;;;;;0.36;86.80;100253.01;1634896;87;20534;-76
2021/01/12 01:06:35;;;;;;;;;;;;;;;0.37;86.78;100256.00;1644716;87;20506;-76
2021/01/12 01:09:00;;;;;;;;;;;;;;;0.37;86.75;100255.14;1643674;87;20731;-76
2021/01/12 01:11:26;;;;;;;;;;;;;;;0.38;86.75;100253.03;1644819;87;21185;-76
2021/01/12 01:13:52;;;;;;;;;;;;;;;0.38;86.78;100250.49;1644860;87;20201;-76
2021/01/12 01:16:19;;;;;;;;;;;;;;;0.38;86.75;100247.95;1644421;87;20206;-76
2021/01/12 01:18:45;;;;;;;;;;;;;;;0.39;86.73;100249.25;1641805;85;20238;-76
2021/01/12 01:21:13;;;;;;;;;;;;;;;0.40;86.77;100239.94;1644943;86;20255;-76
2021/01/12 01:23:39;;;;;;;;;;;;;;;0.40;86.75;100237.39;1632098;86;21778;-76
2021/01/12 01:26:06;;;;;;;;;;;;;;;0.41;86.76;100238.70;1642485;87;20254;-76
2021/01/12 01:28:31;;;;;;;;;;;;;;;0.42;86.75;100231.51;1644889;86;20267;-76
2021/01/12 01:30:57;;;;;;;;;;;;;;;0.42;86.73;100234.47;1641075;87;20796;-76
2021/01/12 01:33:23;;;;;;;;;;;;;;;0.42;86.71;100221.75;1633351;87;20752;-76
2021/01/12 01:35:49;;;;;;;;;;;;;;;0.41;86.72;100215.80;1644877;87;21860;-76
2021/01/12 01:38:15;;;;;;;;;;;;;;;0.43;86.72;100212.02;1641807;87;20918;-76
2021/01/12 01:40:41;;;;;;;;;;;;;;;0.43;86.72;100209.06;1641303;86;20305;-76
2021/01/12 01:43:08;;;;;;;;;;;;;;;0.44;86.71;100200.60;1633454;87;20275;-76
2021/01/12 01:45:34;;;;;;;;;;;;;;;0.45;86.69;100197.23;1643925;86;20281;-76
2021/01/12 01:48:02;;;;;;;;;;;;;;;0.45;86.70;100199.77;1639994;85;21183;-76
2021/01/12 01:50:28;;;;;;;;;;;;;;;0.47;86.70;100190.90;1643212;86;20314;-76
2021/01/12 01:52:55;;;;;;;;;;;;;;;0.48;86.70;100179.89;1635049;87;20272;-76
2021/01/12 01:55:22;;;;;;;;;;;;;;;0.47;86.66;100173.09;1658971;85;20308;-76
2021/01/12 01:57:49;;;;;;;;;;;;;;;0.47;86.65;100168.01;1661235;85;20309;-76
2021/01/12 02:00:17;;;;;;;;;;;;;;;0.47;86.65;100156.14;1661242;85;21254;-76
2021/01/12 02:02:56;;;;;;;;;;;;;;;0.48;86.66;100161.67;1651845;86;20304;-76
2021/01/12 02:05:25;;;;;;;;;;;;;;;0.49;86.65;100157.44;1637707;85;20557;-76
2021/01/12 02:07:53;;;;;;;;;;;;;;;0.46;86.63;100144.27;1660766;85;20281;-76
2021/01/12 02:10:22;;;;;;;;;;;;;;;0.47;86.61;100147.24;1649598;85;20421;-76
2021/01/12 02:12:54;;;;;;;;;;;;;;;0.46;86.55;100142.98;1661251;86;21363;-76
2021/01/12 02:15:22;;;;;;;;;;;;;;;0.47;86.60;100135.80;1651793;86;20310;-76
2021/01/12 02:17:52;;;;;;;;;;;;;;;0.48;86.64;100123.52;1650171;85;20299;-76
2021/01/12 02:20:21;;;;;;;;;;;;;;;0.49;86.61;100121.84;1659857;85;20304;-76
2021/01/12 02:22:48;;;;;;;;;;;;;;;0.48;86.63;100117.16;1660992;86;20292;-76
2021/01/12 02:25:18;;;;;;;;;;;;;;;0.50;86.58;100104.06;1658966;85;21173;-76
2021/01/12 02:27:44;;;;;;;;;;;;;;;0.50;86.52;100107.88;1651034;86;20329;-76
2021/01/12 02:30:11;;;;;;;;;;;;;;;0.49;86.52;100099.80;1641977;86;20269;-76
2021/01/12 02:32:37;;;;;;;;;;;;;;;0.49;86.52;100097.26;1651172;86;20681;-75
2021/01/12 02:35:06;;;;;;;;;;;;;;;0.49;86.52;100098.53;1649003;85;20585;-75
2021/01/12 02:37:32;;;;;;;;;;;;;;;0.49;86.54;100088.36;1660913;85;21358;-75
2021/01/12 02:39:59;;;;;;;;;;;;;;;0.49;86.51;100087.50;1661029;85;20536;-75
2021/01/12 02:42:26;;;;;;;;;;;;;;;0.49;86.52;100082.00;1660598;85;20294;-75
2021/01/12 02:44:52;;;;;;;;;;;;;;;0.49;86.47;100073.09;1650152;86;20271;-75
2021/01/12 02:47:18;;;;;;;;;;;;;;;0.50;86.52;100076.08;1654177;86;20410;-75
2021/01/12 02:49:44;;;;;;;;;;;;;;;0.51;86.49;100072.70;1657689;85;21274;-75
2021/01/12 02:52:13;;;;;;;;;;;;;;;0.50;86.47;100065.05;1660809;86;20854;-75
2021/01/12 02:54:41;;;;;;;;;;;;;;;0.49;86.47;100059.11;1644079;86;20310;-75
2021/01/12 02:57:07;;;;;;;;;;;;;;;0.50;86.40;100054.88;1656134;86;20557;-75
2021/01/12 02:59:33;;;;;;;;;;;;;;;0.50;86.46;100046.83;1653875;86;20250;-75
2021/01/12 03:01:58;;;;;;;;;;;;;;;0.51;86.48;100044.73;1655523;86;21236;-75
2021/01/12 03:04:24;;;;;;;;;;;;;;;0.53;86.47;100039.63;1660738;86;20770;-75
2021/01/12 03:06:50;;;;;;;;;;;;;;;0.51;86.45;100032.00;1660952;86;20241;-75
2021/01/12 03:09:16;;;;;;;;;;;;;;;0.52;86.45;100029.05;1648362;85;20221;-75
2021/01/12 03:11:42;;;;;;;;;;;;;;;0.52;86.45;100009.97;1654858;86;20294;-75
2021/01/12 03:14:08;;;;;;;;;;;;;;;0.53;86.44;100008.69;1660839;86;21123;-75
2021/01/12 03:16:34;;;;;;;;;;;;;;;0.53;86.43;100010.37;1644313;86;20562;-75
2021/01/12 03:19:02;;;;;;;;;;;;;;;0.53;86.44;99998.52;1660473;85;20285;-75
2021/01/12 03:21:28;;;;;;;;;;;;;;;0.54;86.44;99998.95;1662451;86;20245;-75
2021/01/12 03:23:54;;;;;;;;;;;;;;;0.55;86.39;99987.09;1663789;85;20181;-75
2021/01/12 03:26:21;;;;;;;;;;;;;;;0.56;86.43;99973.53;1638459;86;21236;-75
2021/01/12 03:28:47;;;;;;;;;;;;;;;0.55;86.40;99953.61;1652210;85;20255;-75
2021/01/12 03:31:13;;;;;;;;;;;;;;;0.56;86.40;99954.45;1662516;85;20265;-75
2021/01/12 03:33:39;;;;;;;;;;;;;;;0.56;86.38;99955.73;1662463;86;20187;-75
2021/01/12 03:36:05;;;;;;;;;;;;;;;0.57;86.38;99960.84;1661001;85;20866;-75
2021/01/12 03:38:31;;;;;;;;;;;;;;;0.57;86.36;99963.80;1646565;85;21251;-75
2021/01/12 03:40:57;;;;;;;;;;;;;;;0.58;86.38;99957.46;1660803;86;20213;-75
2021/01/12 03:43:23;;;;;;;;;;;;;;;0.59;86.39;99953.23;1661070;86;20287;-75
2021/01/12 03:45:49;;;;;;;;;;;;;;;0.60;86.37;99945.63;1643196;86;20280;-75
2021/01/12 03:48:15;;;;;;;;;;;;;;;0.60;86.35;99944.34;1658905;85;20313;-75
2021/01/12 03:50:41;;;;;;;;;;;;;;;0.61;86.31;99932.48;1656553;85;21275;-75
2021/01/12 03:53:07;;;;;;;;;;;;;;;0.61;86.31;99935.88;1661428;85;20225;-75
2021/01/12 03:55:33;;;;;;;;;;;;;;;0.61;86.31;99928.25;1648015;85;20222;-75
2021/01/12 03:57:59;;;;;;;;;;;;;;;0.61;86.30;99904.09;1639157;86;20602;-75
2021/01/12 04:00:25;;;;;;;;;;;;;;;0.61;86.30;99898.14;1624850;87;20260;-75
2021/01/12 04:02:51;;;;;;;;;;;;;;;0.61;86.29;99895.59;1641991;87;21108;-75
2021/01/12 04:05:18;;;;;;;;;;;;;;;0.59;86.27;99886.67;1629375;87;20282;-75
2021/01/12 04:07:44;;;;;;;;;;;;;;;0.61;86.28;99905.36;1631247;87;20306;-75
2021/01/12 04:10:11;;;;;;;;;;;;;;;0.61;86.29;99888.82;1643627;87;20218;-75
2021/01/12 04:12:37;;;;;;;;;;;;;;;0.62;86.25;99890.95;1629366;86;20636;-75
2021/01/12 04:15:05;;;;;;;;;;;;;;;0.64;86.27;99904.54;1635799;86;21112;-75
2021/01/12 04:17:31;;;;;;;;;;;;;;;0.64;86.29;99905.81;1643112;86;20294;-75
2021/01/12 04:19:57;;;;;;;;;;;;;;;0.64;86.25;99897.77;1643382;86;20174;-75
2021/01/12 04:22:23;;;;;;;;;;;;;;;0.65;86.26;99893.11;1643504;87;20213;-75
2021/01/12 04:24:50;;;;;;;;;;;;;;;0.67;86.27;99885.50;1643435;85;20370;-75
2021/01/12 04:27:16;;;;;;;;;;;;;;;0.68;86.24;99882.12;1636585;86;21174;-75
2021/01/12 04:29:42;;;;;;;;;;;;;;;0.68;86.19;99877.45;1642477;85;20542;-75
2021/01/12 04:32:07;;;;;;;;;;;;;;;0.68;86.19;99878.30;1631177;87;20266;-75
2021/01/12 04:34:34;;;;;;;;;;;;;;;0.68;86.17;99866.85;1643217;85;20266;-76
2021/01/12 04:36:59;;;;;;;;;;;;;;;0.69;86.19;99867.29;1643069;87;20586;-76
2021/01/12 04:39:25;;;;;;;;;;;;;;;0.69;86.14;99863.89;1639824;87;21201;-76
2021/01/12 04:41:51;;;;;;;;;;;;;;;0.68;86.18;99874.48;1636036;86;20217;-75
2021/01/12 04:44:17;;;;;;;;;;;;;;;0.68;86.19;99871.94;1643062;87;20221;-75
2021/01/12 04:46:44;;;;;;;;;;;;;;;0.69;86.15;99863.89;1637071;87;20261;-75
2021/01/12 04:49:09;;;;;;;;;;;;;;;0.70;86.16;99865.59;1642064;87;20278;-75
2021/01/12 04:51:35;;;;;;;;;;;;;;;0.70;86.19;99852.46;1642922;87;21877;-75
2021/01/12 04:54:01;;;;;;;;;;;;;;;0.70;86.13;99858.82;1636271;85;20271;-75
2021/01/12 04:56:27;;;;;;;;;;;;;;;0.70;86.16;99860.09;1635403;85;20389;-75
2021/01/12 04:58:54;;;;;;;;;;;;;;;0.71;86.16;99849.50;1646007;85;20254;-75
2021/01/12 05:01:22;;;;;;;;;;;;;;;0.72;86.14;99841.03;1643324;85;20306;-75
2021/01/12 05:03:50;;;;;;;;;;;;;;;0.73;86.16;99840.19;1645581;85;21182;-75
2021/01/12 05:06:19;;;;;;;;;;;;;;;0.74;86.14;99844.45;1647363;85;20246;-75
2021/01/12 05:08:48;;;;;;;;;;;;;;;0.75;86.12;99834.70;1640519;85;20509;-75
2021/01/12 05:11:14;;;;;;;;;;;;;;;0.76;86.12;99827.09;1642500;85;20262;-76
2021/01/12 05:13:44;;;;;;;;;;;;;;;0.76;86.13;99827.09;1648561;85;20254;-76
2021/01/12 05:16:10;;;;;;;;;;;;;;;0.77;86.08;99830.48;1640674;85;21102;-76
2021/01/12 05:18:38;;;;;;;;;;;;;;;0.78;86.11;99816.51;1644615;85;20254;-76
2021/01/12 05:21:06;;;;;;;;;;;;;;;0.78;86.06;99815.23;1654308;85;20177;-76
2021/01/12 05:23:36;;;;;;;;;;;;;;;0.79;86.09;99810.58;1643866;85;20629;-76
2021/01/12 05:26:04;;;;;;;;;;;;;;;0.79;86.09;99801.67;1630679;85;20315;-74
2021/01/12 05:28:31;;;;;;;;;;;;;;;0.81;86.10;99799.15;1650968;85;21159;-75
2021/01/12 05:30:58;;;;;;;;;;;;;;;0.82;86.06;99795.77;1645414;85;20322;-75
2021/01/12 05:33:26;;;;;;;;;;;;;;;0.83;86.06;99787.29;1629942;85;20284;-75
2021/01/12 05:35:52;;;;;;;;;;;;;;;0.83;86.09;99785.60;1628737;86;20415;-75
2021/01/12 05:38:29;;;;;;;;;;;;;;;0.84;86.05;99791.12;1643500;86;20294;-75
2021/01/12 05:41:00;;;;;;;;;;;;;;;0.85;86.06;99785.62;1642938;85;21961;-75
2021/01/12 05:43:37;;;;;;;;;;;;;;;0.86;86.08;99784.36;1638211;85;20286;-75
2021/01/12 05:46:11;;;;;;;;;;;;;;;0.88;86.06;99781.41;1631510;86;624525;-75
2021/01/12 05:48:42;;;;;;;;;;;;;;;0.89;86.05;99783.53;1642300;85;20282;-75
2021/01/12 05:51:10;;;;;;;;;;;;;;;0.89;86.05;99774.63;1644606;85;20311;-75
2021/01/12 05:53:49;;;;;;;;;;;;;;;0.90;86.10;99772.52;1643172;85;21258;-75
2021/01/12 05:56:22;;;;;;;;;;;;;;;0.89;86.10;99769.12;1641915;85;20341;-75
2021/01/12 05:58:50;;;;;;;;;;;;;;;0.91;86.11;99775.50;1643134;85;20324;-75
2021/01/12 06:01:38;;;;;;;;;;;;;;;0.91;86.09;99770.41;1632957;86;20333;-76
2021/01/12 06:04:08;;;;;;;;;;;;;;;0.90;86.08;99764.47;1645397;85;20275;-76
2021/01/12 06:06:36;;;;;;;;;;;;;;;0.92;86.09;99757.70;1644402;85;22361;-77
2021/01/12 06:09:02;;;;;;;;;;;;;;;0.93;86.09;99754.73;1642243;85;20256;-77
2021/01/12 06:11:29;;;;;;;;;;;;;;;0.93;86.08;99758.13;1655923;85;20198;-77
2021/01/12 06:13:58;;;;;;;;;;;;;;;0.93;86.08;99756.86;1572693;85;5000323;-77
2021/01/12 06:16:26;;;;;;;;;;;;;;;0.95;86.08;99759.41;1653738;85;20257;-77
2021/01/12 06:19:06;;;;;;;;;;;;;;;0.94;86.08;99753.89;1658882;85;21247;-77
2021/01/12 06:21:38;;;;;;;;;;;;;;;0.93;86.11;99753.04;1655544;85;20257;-76
2021/01/12 06:24:07;;;;;;;;;;;;;;;0.93;86.11;99743.28;1634736;85;20288;-76
2021/01/12 06:26:33;;;;;;;;;;;;;;;0.93;86.12;99741.59;1652784;85;20269;-76
2021/01/12 06:28:59;;;;;;;;;;;;;;;0.93;86.12;99747.09;1662555;85;20298;-76
2021/01/12 06:31:25;;;;;;;;;;;;;;;0.95;86.15;99745.00;1654179;85;21245;-76
2021/01/12 06:33:57;;;;;;;;;;;;;;;0.94;86.15;99740.75;1665196;85;20279;-76
2021/01/12 06:36:28;;;;;;;;;;;;;;;0.94;86.15;99733.53;1655707;84;20222;-76
2021/01/12 06:38:56;;;;;;;;;;;;;;;0.93;86.11;99726.73;1655996;85;20300;-76
2021/01/12 06:41:22;;;;;;;;;;;;;;;0.92;86.14;99733.52;1657403;85;20265;-76
2021/01/12 06:43:50;;;;;;;;;;;;;;;0.92;86.16;99732.24;1660381;85;21172;-76
2021/01/12 06:46:17;;;;;;;;;;;;;;;0.90;86.17;99723.75;1654842;85;20485;-77
2021/01/12 06:48:44;;;;;;;;;;;;;;;0.90;86.22;99730.53;1658207;85;20249;-77
2021/01/12 06:51:10;;;;;;;;;;;;;;;0.89;86.25;99725.86;1666600;85;20998;-77
2021/01/12 06:53:36;;;;;;;;;;;;;;;0.88;86.25;99720.75;1644794;85;20587;-77
2021/01/12 06:56:06;;;;;;;;;;;;;;;0.86;86.25;99717.34;1637320;84;21269;-77
2021/01/12 06:58:32;;;;;;;;;;;;;;;0.85;86.32;99719.03;1654595;85;20345;-77
2021/01/12 07:01:00;;;;;;;;;;;;;;;0.83;86.31;99712.22;1654122;85;20316;-77
2021/01/12 07:03:31;;;;;;;;;;;;;;;0.81;86.35;99711.36;1658125;84;20310;-77
2021/01/12 07:06:01;;;;;;;;;;;;;;;0.79;86.37;99711.77;1663692;86;20679;-76
2021/01/12 07:08:28;;;;;;;;;;;;;;;0.76;86.37;99706.23;1648054;84;21254;-76
2021/01/12 07:10:55;;;;;;;;;;;;;;;0.74;86.39;99709.59;1660032;84;20609;-76
2021/01/12 07:13:21;;;;;;;;;;;;;;;0.72;86.41;99699.41;1662637;84;20572;-76
2021/01/12 07:15:49;;;;;;;;;;;;;;;0.70;86.45;99702.78;1664248;84;20758;-76
2021/01/12 07:18:18;;;;;;;;;;;;;;;0.67;86.47;99706.14;1664306;84;20293;-76
2021/01/12 07:20:45;;;;;;;;;;;;;;;0.66;86.51;99692.99;1662632;84;21384;-76
2021/01/12 07:23:12;;;;;;;;;;;;;;;0.65;86.52;99690.02;1665911;84;20308;-76
2021/01/12 07:25:39;;;;;;;;;;;;;;;0.63;86.55;99691.69;1666570;84;20500;-78
2021/01/12 07:28:17;;;;;;;;;;;;;;;0.61;86.59;99687.86;1670168;84;21003;-79
2021/01/12 07:30:45;;;;;;;;;;;;;;;0.61;86.60;99694.22;1664927;84;20305;-76
2021/01/12 07:33:20;;;;;;;;;;;;;;;0.59;86.62;99689.95;1666562;84;21230;-76
2021/01/12 07:35:51;;;;;;;;;;;;;;;0.59;86.66;99694.63;1662388;84;20305;-76
2021/01/12 07:38:22;;;;;;;;;;;;;;;0.58;86.69;99692.06;1667194;84;20299;-77
2021/01/12 07:40:48;;;;;;;;;;;;;;;0.58;86.70;99692.06;1661232;84;20254;-76
2021/01/12 07:43:15;;;;;;;;;;;;;;;0.58;86.69;99685.70;1665965;84;20294;-76
2021/01/12 07:45:41;;;;;;;;;;;;;;;0.57;86.74;99682.31;1665772;84;21202;-76
2021/01/12 07:48:08;;;;;;;;;;;;;;;0.57;86.70;99683.58;1665022;84;20564;-76
2021/01/12 07:50:34;;;;;;;;;;;;;;;0.55;86.73;99675.50;1664711;84;20261;-76
2021/01/12 07:53:00;;;;;;;;;;;;;;;0.54;86.74;99674.66;1665795;84;20264;-76
2021/01/12 07:55:27;;;;;;;;;;;;;;;0.53;86.77;99676.77;1645305;86;20237;-76
2021/01/12 07:57:53;;;;;;;;;;;;;;;0.53;86.76;99677.18;1654696;85;22493;-76
2021/01/12 08:00:20;;;;;;;;;;;;;;;0.53;86.82;99674.64;1657508;85;20297;-77
2021/01/12 08:02:52;;;;;;;;;;;;;;;0.53;86.83;99681.00;1657925;85;20281;-76
2021/01/12 08:05:24;;;;;;;;;;;;;;;0.53;86.84;99665.31;1650904;85;20257;-76
2021/01/12 08:08:00;;;;;;;;;;;;;;;0.53;86.81;99668.28;1654309;85;20249;-77
2021/01/12 08:10:26;;;;;;;;;;;;;;;0.52;86.83;99675.05;1656827;85;21103;-76
2021/01/12 08:12:52;;;;;;;;;;;;;;;0.51;86.83;99673.38;1656450;85;20206;-76
2021/01/12 08:15:18;;;;;;;;;;;;;;;0.51;86.86;99667.45;1656327;85;20225;-76
2021/01/12 08:17:48;;;;;;;;;;;;;;;0.51;86.83;99664.90;1647448;85;20500;-76
2021/01/12 08:20:18;;;;;;;;;;;;;;;0.49;86.86;99663.61;1657240;85;20933;-76
2021/01/12 08:22:53;;;;;;;;;;;;;;;0.49;86.87;99669.12;1648597;85;21198;-77
2021/01/12 08:25:19;;;;;;;;;;;;;;;0.48;86.89;99660.64;1660074;85;20269;-76
2021/01/12 08:27:51;;;;;;;;;;;;;;;0.48;86.89;99658.52;1649451;85;20250;-78
2021/01/12 08:30:19;;;;;;;;;;;;;;;0.46;86.90;99660.19;1656670;84;20257;-79
2021/01/12 08:32:48;;;;;;;;;;;;;;;0.44;86.90;99659.33;1650659;85;20615;-79
2021/01/12 08:35:16;;;;;;;;;;;;;;;0.42;86.94;99659.31;1652994;85;21386;-79
2021/01/12 08:37:42;;;;;;;;;;;;;;;0.42;86.96;99661.00;1640851;85;20295;-79
2021/01/12 08:40:11;;;;;;;;;;;;;;;0.42;86.98;99654.64;1658598;85;20273;-79
2021/01/12 08:42:38;;;;;;;;;;;;;;;0.42;86.96;99652.10;1651212;85;20984;-79
2021/01/12 08:45:16;;;;;;;;;;;;;;;0.41;87.01;99655.06;1656353;85;20285;-79
2021/01/12 08:47:42;;;;;;;;;;;;;;;0.42;86.98;99654.64;1652703;85;21288;-76
2021/01/12 08:50:09;;;;;;;;;;;;;;;0.40;87.00;99655.05;1653952;85;20289;-76
2021/01/12 08:52:38;;;;;;;;;;;;;;;0.40;87.01;99650.81;1653901;85;20289;-76
2021/01/12 08:55:19;;;;;;;;;;;;;;;0.38;87.00;99646.13;1653923;85;20617;-77
2021/01/12 08:57:56;;;;;;;;;;;;;;;0.38;86.99;99651.64;1657178;85;20283;-78
2021/01/12 09:00:31;;;;;;;;;;;;;;;0.38;87.04;99647.83;1656560;85;21184;-76
2021/01/12 09:02:58;;;;;;;;;;;;;;;0.39;87.05;99646.56;1663950;85;20281;-76
2021/01/12 09:05:25;;;;;;;;;;;;;;;0.39;87.06;99647.84;1653386;85;20334;-77
2021/01/12 09:08:11;;;;;;;;;;;;;;;0.39;87.05;99645.72;1654506;86;20341;-77
2021/01/12 09:10:39;;;;;;;;;;;;;;;0.40;87.09;99641.91;1662508;85;20309;-76
2021/01/12 09:13:06;;;;;;;;;;;;;;;0.42;87.16;99647.02;1650910;85;22049;-76
2021/01/12 09:15:34;;;;;;;;;;;;;;;0.43;87.14;99639.40;1655417;85;20311;-75
2021/01/12 09:18:20;;;;;;;;;;;;;;;0.44;87.15;99636.44;1653867;85;20304;-74
2021/01/12 09:21:00;;;;;;;;;;;;;;;0.45;87.14;99636.88;1652210;83;20295;-76
2021/01/12 09:23:27;;;;;;;;;;;;;;;0.46;87.14;99636.88;1650963;85;20592;-75
2021/01/12 09:26:02;;;;;;;;;;;;;;;0.47;87.11;99634.77;1650830;85;21917;-75
2021/01/12 09:28:39;;;;;;;;;;;;;;;0.48;87.12;99636.48;1653772;85;20330;-75
2021/01/12 09:31:07;;;;;;;;;;;;;;;0.49;87.13;99629.28;1661051;85;20281;-75
2021/01/12 09:33:33;;;;;;;;;;;;;;;0.51;87.13;99630.15;1653862;85;20297;-74
2021/01/12 09:36:08;;;;;;;;;;;;;;;0.50;87.10;99630.14;1649949;85;20291;-75
2021/01/12 09:38:37;;;;;;;;;;;;;;;0.52;87.14;99632.27;1630968;85;40266;-76
2021/01/12 09:41:04;;;;;;;;;;;;;;;0.52;87.14;99625.91;1643894;85;20518;-77
2021/01/12 09:43:30;;;;;;;;;;;;;;;0.53;87.16;99622.50;1654405;85;20306;-77
2021/01/12 09:45:57;;;;;;;;;;;;;;;0.52;87.16;99621.64;1649575;86;20322;-76
2021/01/12 09:48:23;;;;;;;;;;;;;;;0.52;87.13;99616.56;1643837;85;20318;-76
2021/01/12 09:50:49;;;;;;;;;;;;;;;0.53;87.15;99608.09;1660702;85;21105;-76
2021/01/12 09:53:15;;;;;;;;;;;;;;;0.51;87.18;99609.80;1667494;85;20251;-77
2021/01/12 09:55:42;;;;;;;;;;;;;;;0.53;87.30;99603.00;1651473;85;20276;-76
2021/01/12 09:58:08;;;;;;;;;;;;;;;0.54;87.32;99601.31;1643820;85;20287;-76
2021/01/12 10:00:34;;;;;;;;;;;;;;;0.53;87.28;99599.19;1646975;86;20259;-76
2021/01/12 10:03:00;;;;;;;;;;;;;;;0.53;87.18;99593.25;1656839;85;22297;-78
2021/01/12 10:05:26;;;;;;;;;;;;;;;0.51;87.21;99589.87;1666395;85;20344;-77
2021/01/12 10:07:52;;;;;;;;;;;;;;;0.50;87.24;99590.30;1671192;85;20709;-77
2021/01/12 10:10:18;;;;;;;;;;;;;;;0.51;87.23;99584.79;1642827;85;20912;-76
2021/01/12 10:12:44;;;;;;;;;;;;;;;0.51;87.26;99585.64;1662929;85;20286;-77
2021/01/12 10:15:10;;;;;;;;;;;;;;;0.53;87.28;99577.57;1673448;85;22223;-76
2021/01/12 10:17:36;;;;;;;;;;;;;;;0.53;87.28;99575.03;1651516;85;20310;-76
2021/01/12 10:20:03;;;;;;;;;;;;;;;0.53;87.23;99573.75;1643036;83;20261;-79
2021/01/12 10:22:29;;;;;;;;;;;;;;;0.54;87.24;99572.06;1643223;85;20657;-78
2021/01/12 10:24:58;;;;;;;;;;;;;;;0.56;87.28;99574.20;1638889;85;20227;-77
2021/01/12 10:27:23;;;;;;;;;;;;;;;0.55;87.27;99575.04;1641891;85;20515;-77
2021/01/12 10:29:51;;;;;;;;;;;;;;;0.53;87.28;99571.21;1640896;85;20339;-77
2021/01/12 10:32:18;;;;;;;;;;;;;;;0.53;87.30;99566.13;1651264;85;20322;-77
2021/01/12 10:34:44;;;;;;;;;;;;;;;0.54;87.31;99557.66;1638709;85;20408;-76
2021/01/12 10:37:14;;;;;;;;;;;;;;;0.55;87.30;99551.73;1654711;85;20201;-76
2021/01/12 10:39:40;;;;;;;;;;;;;;;0.55;87.32;99555.55;1656719;85;21358;-77
2021/01/12 10:42:06;;;;;;;;;;;;;;;0.58;87.38;99553.02;1653323;85;20337;-77
2021/01/12 10:44:32;;;;;;;;;;;;;;;0.59;87.35;99544.97;1643229;85;20591;-77
2021/01/12 10:46:58;;;;;;;;;;;;;;;0.59;87.35;99540.73;1652496;85;20576;-76
2021/01/12 10:49:24;;;;;;;;;;;;;;;0.59;87.31;99534.80;1657419;85;20297;-77
2021/01/12 10:52:02;;;;;;;;;;;;;;;0.58;87.31;99535.64;1649864;85;21284;-77
2021/01/12 10:54:29;;;;;;;;;;;;;;;0.58;87.33;99531.82;1652233;85;20327;-77
2021/01/12 10:56:55;;;;;;;;;;;;;;;0.58;87.35;99530.13;1662732;85;20554;-77
2021/01/12 10:59:22;;;;;;;;;;;;;;;0.60;87.38;99525.91;1658516;85;20745;-77
2021/01/12 11:02:20;;;;;;;;;;;;;;;0.61;87.39;99525.06;1657561;85;20289;-78
2021/01/12 11:04:28;;;;;;;;;;;;;;;0.64;87.40;99515.33;1649077;85;20342;-78
2021/01/12 11:06:55;;;;;;;;;;;;;;;0.65;87.39;99510.25;1657606;85;20310;-78
2021/01/12 11:09:22;;;;;;;;;;;;;;;0.67;87.38;99505.17;1628834;85;20791;-77
2021/01/12 11:11:52;;;;;;;;;;;;;;;0.68;87.38;99504.75;1657338;85;20696;-77
2021/01/12 11:14:19;;;;;;;;;;;;;;;0.70;87.42;99500.52;1655211;85;20866;-77
2021/01/12 11:16:46;;;;;;;;;;;;;;;0.72;87.46;99495.03;1658287;85;21245;-77
2021/01/12 11:19:12;;;;;;;;;;;;;;;0.75;87.42;99495.05;1660954;85;20258;-77
2021/01/12 11:21:46;;;;;;;;;;;;;;;0.75;87.38;99488.69;1657814;85;20268;-77
2021/01/12 11:24:15;;;;;;;;;;;;;;;0.79;87.46;99486.16;1649129;85;20266;-77
2021/01/12 11:26:43;;;;;;;;;;;;;;;0.81;87.45;99485.75;1661408;85;20606;-77
2021/01/12 11:29:09;;;;;;;;;;;;;;;0.83;87.41;99485.34;1660503;85;22937;-77
2021/01/12 11:31:36;;;;;;;;;;;;;;;0.84;87.44;99475.59;1661590;85;20258;-77
2021/01/12 11:34:02;;;;;;;;;;;;;;;0.88;87.44;99473.91;1656579;85;20246;-77
2021/01/12 11:36:36;;;;;;;;;;;;;;;0.89;87.45;99477.73;1662268;85;20205;-76
2021/01/12 11:39:03;;;;;;;;;;;;;;;0.91;87.45;99476.47;1653899;85;20652;-76
2021/01/12 11:41:29;;;;;;;;;;;;;;;0.93;87.47;99472.23;1659638;85;21257;-77
2021/01/12 11:43:55;;;;;;;;;;;;;;;0.93;87.41;99474.36;1656385;85;20225;-77
2021/01/12 11:46:28;;;;;;;;;;;;;;;0.96;87.49;99473.52;1655432;85;20650;-77
2021/01/12 11:48:58;;;;;;;;;;;;;;;0.97;87.50;99464.62;1656909;85;20267;-77
2021/01/12 11:51:36;;;;;;;;;;;;;;;1.00;87.48;99457.42;1656493;85;20274;-76
2021/01/12 11:54:03;;;;;;;;;;;;;;;1.02;87.46;99458.28;1653341;85;21390;-77
2021/01/12 11:56:29;;;;;;;;;;;;;;;1.02;87.42;99452.34;1653385;85;20490;-77
2021/01/12 11:58:55;;;;;;;;;;;;;;;1.00;87.41;99443.42;1655306;85;20325;-77
2021/01/12 12:01:21;;;;;;;;;;;;;;;0.99;87.41;99444.27;1656243;85;20293;-80
2021/01/12 12:03:47;;;;;;;;;;;;;;;0.99;87.46;99440.45;1651330;85;20319;-81
2021/01/12 12:06:12;;;;;;;;;;;;;;;0.99;87.44;99436.63;1657996;85;21272;-80
2021/01/12 12:08:38;;;;;;;;;;;;;;;0.99;87.46;99429.00;1656581;85;20434;-79
2021/01/12 12:11:04;;;;;;;;;;;;;;;0.99;87.49;99435.36;1657948;85;20277;-80
2021/01/12 12:13:31;;;;;;;;;;;;;;;0.98;87.46;99426.88;1658550;85;21276;-80
2021/01/12 12:15:58;;;;;;;;;;;;;;;0.98;87.45;99428.14;1657508;85;20301;-80
2021/01/12 12:18:25;;;;;;;;;;;;;;;0.98;87.50;99429.42;1659451;85;22463;-80
2021/01/12 12:20:51;;;;;;;;;;;;;;;0.99;87.51;99422.64;1659398;84;20273;-80
2021/01/12 12:23:17;;;;;;;;;;;;;;;0.99;87.47;99417.55;1654416;85;20304;-80
2021/01/12 12:25:43;;;;;;;;;;;;;;;0.99;87.53;99420.09;1658716;85;20387;-80
2021/01/12 12:28:09;;;;;;;;;;;;;;;1.01;87.57;99413.31;1656978;85;20257;-80
2021/01/12 12:30:35;;;;;;;;;;;;;;;1.03;87.56;99417.13;1661292;85;21308;-80
2021/01/12 12:33:01;;;;;;;;;;;;;;;1.05;87.57;99414.14;1661290;85;20764;-79
2021/01/12 12:35:27;;;;;;;;;;;;;;;1.05;87.56;99406.08;1655164;85;20345;-79
2021/01/12 12:37:53;;;;;;;;;;;;;;;1.05;87.54;99397.59;1661389;85;20961;-79
2021/01/12 12:40:19;;;;;;;;;;;;;;;1.04;87.52;99401.83;1660446;85;20213;-79
2021/01/12 12:42:45;;;;;;;;;;;;;;;1.04;87.54;99395.92;1658029;85;21278;-79
2021/01/12 12:45:12;;;;;;;;;;;;;;;1.04;87.55;99394.20;1658384;85;20253;-79
2021/01/12 12:47:40;;;;;;;;;;;;;;;1.06;87.60;99391.23;1651784;85;20321;-78
2021/01/12 12:50:07;;;;;;;;;;;;;;;1.07;87.59;99391.66;1656716;85;20671;-80
2021/01/12 12:52:34;;;;;;;;;;;;;;;1.09;87.60;99395.06;1651980;85;20272;-79
2021/01/12 12:55:00;;;;;;;;;;;;;;;1.10;87.58;99392.09;1658769;85;21194;-78
2021/01/12 12:57:26;;;;;;;;;;;;;;;1.10;87.63;99392.09;1649998;84;20593;-78